sensor_id;sensor_type;location;lat;lon;timestamp;P1;durP1;ratioP1;P2;durP2;ratioP2
76346;SDS011;65171;48.378;10.010;2022-12-07T00:00:42;9.77;;;8.77;;
76346;SDS011;65171;48.378;10.010;2022-12-07T00:03:07;9.83;;;8.30;;
76346;SDS011;65171;48.378;10.010;2022-12-07T00:05:32;12.47;;;9.10;;
76346;SDS011;65171;48.378;10.010;2022-12-07T00:07:57;10.10;;;8.97;;
76346;SDS011;65171;48.378;10.010;2022-12-07T00:10:22;9.13;;;8.23;;
76346;SDS011;65171;48.378;10.010;2022-12-07T00:12:47;9.53;;;8.40;;
76346;SDS011;65171;48.378;10.010;2022-12-07T00:15:13;9.67;;;8.67;;
76346;SDS011;65171;48.378;10.010;2022-12-07T00:17:38;10.93;;;8.60;;
76346;SDS011;65171;48.378;10.010;2022-12-07T00:20:03;9.27;;;8.27;;
76346;SDS011;65171;48.378;10.010;2022-12-07T00:22:29;8.97;;;8.07;;
76346;SDS011;65171;48.378;10.010;2022-12-07T00:24:54;10.00;;;8.97;;
76346;SDS011;65171;48.378;10.010;2022-12-07T00:27:20;9.97;;;8.43;;
76346;SDS011;65171;48.378;10.010;2022-12-07T00:29:45;9.10;;;8.20;;
76346;SDS011;65171;48.378;10.010;2022-12-07T00:32:10;9.50;;;8.50;;
76346;SDS011;65171;48.378;10.010;2022-12-07T00:34:35;8.90;;;8.00;;
76346;SDS011;65171;48.378;10.010;2022-12-07T00:37:00;9.67;;;8.63;;
76346;SDS011;65171;48.378;10.010;2022-12-07T00:39:25;8.40;;;7.60;;
76346;SDS011;65171;48.378;10.010;2022-12-07T00:41:51;8.70;;;7.90;;
76346;SDS011;65171;48.378;10.010;2022-12-07T00:44:16;9.10;;;8.20;;
76346;SDS011;65171;48.378;10.010;2022-12-07T00:46:41;8.97;;;8.07;;
76346;SDS011;65171;48.378;10.010;2022-12-07T00:49:06;8.60;;;7.80;;
76346;SDS011;65171;48.378;10.010;2022-12-07T00:51:31;8.33;;;7.53;;
76346;SDS011;65171;48.378;10.010;2022-12-07T00:53:57;9.03;;;8.13;;
76346;SDS011;65171;48.378;10.010;2022-12-07T00:56:25;9.93;;;8.93;;
76346;SDS011;65171;48.378;10.010;2022-12-07T00:58:56;9.07;;;8.27;;
76346;SDS011;65171;48.378;10.010;2022-12-07T01:01:23;9.17;;;8.27;;
76346;SDS011;65171;48.378;10.010;2022-12-07T01:03:49;8.43;;;7.63;;
76346;SDS011;65171;48.378;10.010;2022-12-07T01:06:16;8.13;;;7.43;;
76346;SDS011;65171;48.378;10.010;2022-12-07T01:08:42;9.23;;;8.30;;
76346;SDS011;65171;48.378;10.010;2022-12-07T01:11:09;9.63;;;8.63;;
76346;SDS011;65171;48.378;10.010;2022-12-07T01:13:37;8.80;;;7.93;;
76346;SDS011;65171;48.378;10.010;2022-12-07T01:16:04;9.83;;;8.93;;
76346;SDS011;65171;48.378;10.010;2022-12-07T01:18:31;9.70;;;8.70;;
76346;SDS011;65171;48.378;10.010;2022-12-07T01:23:32;9.93;;;8.93;;
76346;SDS011;65171;48.378;10.010;2022-12-07T01:25:59;9.97;;;9.00;;
76346;SDS011;65171;48.378;10.010;2022-12-07T01:28:26;10.23;;;9.23;;
76346;SDS011;65171;48.378;10.010;2022-12-07T01:30:58;9.83;;;8.93;;
76346;SDS011;65171;48.378;10.010;2022-12-07T01:33:29;11.50;;;9.30;;
76346;SDS011;65171;48.378;10.010;2022-12-07T01:36:00;10.90;;;9.63;;
76346;SDS011;65171;48.378;10.010;2022-12-07T01:38:26;10.40;;;9.30;;
76346;SDS011;65171;48.378;10.010;2022-12-07T01:40:55;9.47;;;8.57;;
76346;SDS011;65171;48.378;10.010;2022-12-07T01:43:21;10.50;;;9.40;;
76346;SDS011;65171;48.378;10.010;2022-12-07T01:45:48;10.30;;;9.30;;
76346;SDS011;65171;48.378;10.010;2022-12-07T01:48:14;10.40;;;9.40;;
76346;SDS011;65171;48.378;10.010;2022-12-07T01:50:43;10.60;;;9.60;;
76346;SDS011;65171;48.378;10.010;2022-12-07T01:53:09;10.70;;;9.37;;
76346;SDS011;65171;48.378;10.010;2022-12-07T01:55:37;11.27;;;10.07;;
76346;SDS011;65171;48.378;10.010;2022-12-07T01:58:05;11.70;;;10.47;;
76346;SDS011;65171;48.378;10.010;2022-12-07T02:00:30;11.50;;;10.30;;
76346;SDS011;65171;48.378;10.010;2022-12-07T02:03:01;11.70;;;10.27;;
76346;SDS011;65171;48.378;10.010;2022-12-07T02:05:38;13.00;;;11.60;;
76346;SDS011;65171;48.378;10.010;2022-12-07T02:08:06;12.93;;;11.57;;
76346;SDS011;65171;48.378;10.010;2022-12-07T02:10:32;14.27;;;12.07;;
76346;SDS011;65171;48.378;10.010;2022-12-07T02:13:19;13.47;;;11.60;;
76346;SDS011;65171;48.378;10.010;2022-12-07T02:21:46;12.67;;;11.03;;
76346;SDS011;65171;48.378;10.010;2022-12-07T02:29:45;13.33;;;11.90;;
76346;SDS011;65171;48.378;10.010;2022-12-07T02:32:19;14.07;;;12.07;;
76346;SDS011;65171;48.378;10.010;2022-12-07T02:34:52;14.43;;;12.27;;
76346;SDS011;65171;48.378;10.010;2022-12-07T02:40:35;12.93;;;11.27;;
76346;SDS011;65171;48.378;10.010;2022-12-07T02:43:16;13.23;;;11.83;;
76346;SDS011;65171;48.378;10.010;2022-12-07T02:45:45;14.37;;;12.87;;
76346;SDS011;65171;48.378;10.010;2022-12-07T02:48:12;13.23;;;11.83;;
76346;SDS011;65171;48.378;10.010;2022-12-07T02:50:44;15.07;;;12.90;;
76346;SDS011;65171;48.378;10.010;2022-12-07T02:56:07;15.00;;;12.77;;
76346;SDS011;65171;48.378;10.010;2022-12-07T02:58:50;16.83;;;12.63;;
76346;SDS011;65171;48.378;10.010;2022-12-07T03:09:59;15.23;;;12.87;;
76346;SDS011;65171;48.378;10.010;2022-12-07T03:12:42;17.67;;;13.43;;
76346;SDS011;65171;48.378;10.010;2022-12-07T03:17:58;16.50;;;12.90;;
76346;SDS011;65171;48.378;10.010;2022-12-07T03:20:26;15.93;;;13.37;;
76346;SDS011;65171;48.378;10.010;2022-12-07T03:22:54;15.27;;;13.10;;
76346;SDS011;65171;48.378;10.010;2022-12-07T03:25:19;15.70;;;12.90;;
76346;SDS011;65171;48.378;10.010;2022-12-07T03:27:48;15.33;;;12.87;;
76346;SDS011;65171;48.378;10.010;2022-12-07T03:30:19;14.63;;;12.23;;
76346;SDS011;65171;48.378;10.010;2022-12-07T03:33:03;13.03;;;11.63;;
76346;SDS011;65171;48.378;10.010;2022-12-07T03:35:44;12.70;;;11.37;;
76346;SDS011;65171;48.378;10.010;2022-12-07T03:38:19;13.40;;;12.00;;
76346;SDS011;65171;48.378;10.010;2022-12-07T03:43:32;14.17;;;11.33;;
76346;SDS011;65171;48.378;10.010;2022-12-07T03:48:41;13.43;;;12.03;;
76346;SDS011;65171;48.378;10.010;2022-12-07T03:51:21;14.60;;;11.30;;
76346;SDS011;65171;48.378;10.010;2022-12-07T03:56:47;12.20;;;10.83;;
76346;SDS011;65171;48.378;10.010;2022-12-07T03:59:14;13.53;;;11.07;;
76346;SDS011;65171;48.378;10.010;2022-12-07T04:01:43;12.60;;;11.07;;
76346;SDS011;65171;48.378;10.010;2022-12-07T04:04:09;13.97;;;11.83;;
76346;SDS011;65171;48.378;10.010;2022-12-07T04:06:34;13.00;;;11.60;;
76346;SDS011;65171;48.378;10.010;2022-12-07T04:08:59;13.47;;;10.97;;
76346;SDS011;65171;48.378;10.010;2022-12-07T04:11:24;13.60;;;11.30;;
76346;SDS011;65171;48.378;10.010;2022-12-07T04:13:50;13.37;;;11.90;;
76346;SDS011;65171;48.378;10.010;2022-12-07T04:16:15;12.97;;;11.30;;
76346;SDS011;65171;48.378;10.010;2022-12-07T04:18:40;12.57;;;11.27;;
76346;SDS011;65171;48.378;10.010;2022-12-07T04:21:05;14.13;;;10.97;;
76346;SDS011;65171;48.378;10.010;2022-12-07T04:23:30;12.70;;;11.40;;
76346;SDS011;65171;48.378;10.010;2022-12-07T04:25:56;12.80;;;11.43;;
76346;SDS011;65171;48.378;10.010;2022-12-07T04:28:21;12.60;;;11.23;;
76346;SDS011;65171;48.378;10.010;2022-12-07T04:30:46;11.53;;;10.33;;
76346;SDS011;65171;48.378;10.010;2022-12-07T04:33:11;12.00;;;10.70;;
76346;SDS011;65171;48.378;10.010;2022-12-07T04:35:36;12.20;;;10.90;;
76346;SDS011;65171;48.378;10.010;2022-12-07T04:38:02;12.03;;;10.43;;
76346;SDS011;65171;48.378;10.010;2022-12-07T04:40:27;12.80;;;10.50;;
76346;SDS011;65171;48.378;10.010;2022-12-07T04:42:52;11.83;;;10.60;;
76346;SDS011;65171;48.378;10.010;2022-12-07T04:45:17;14.50;;;12.03;;
76346;SDS011;65171;48.378;10.010;2022-12-07T04:47:42;12.73;;;11.00;;
76346;SDS011;65171;48.378;10.010;2022-12-07T04:50:09;12.40;;;10.67;;
76346;SDS011;65171;48.378;10.010;2022-12-07T04:52:34;12.57;;;11.17;;
76346;SDS011;65171;48.378;10.010;2022-12-07T04:54:59;12.97;;;11.13;;
76346;SDS011;65171;48.378;10.010;2022-12-07T04:57:24;14.93;;;11.10;;
76346;SDS011;65171;48.378;10.010;2022-12-07T04:59:50;11.53;;;10.33;;
76346;SDS011;65171;48.378;10.010;2022-12-07T05:02:15;12.97;;;11.27;;
76346;SDS011;65171;48.378;10.010;2022-12-07T05:04:40;13.40;;;11.40;;
76346;SDS011;65171;48.378;10.010;2022-12-07T05:07:05;12.27;;;11.00;;
76346;SDS011;65171;48.378;10.010;2022-12-07T05:09:30;11.73;;;10.50;;
76346;SDS011;65171;48.378;10.010;2022-12-07T05:11:55;12.47;;;10.60;;
76346;SDS011;65171;48.378;10.010;2022-12-07T05:14:21;11.93;;;10.73;;
76346;SDS011;65171;48.378;10.010;2022-12-07T05:16:47;11.53;;;10.30;;
76346;SDS011;65171;48.378;10.010;2022-12-07T05:19:14;10.87;;;9.60;;
76346;SDS011;65171;48.378;10.010;2022-12-07T05:21:40;10.53;;;9.43;;
76346;SDS011;65171;48.378;10.010;2022-12-07T05:24:05;11.33;;;8.93;;
76346;SDS011;65171;48.378;10.010;2022-12-07T05:26:32;9.60;;;8.10;;
76346;SDS011;65171;48.378;10.010;2022-12-07T05:28:57;9.60;;;7.90;;
76346;SDS011;65171;48.378;10.010;2022-12-07T05:31:23;8.83;;;7.40;;
76346;SDS011;65171;48.378;10.010;2022-12-07T05:33:49;10.10;;;8.57;;
76346;SDS011;65171;48.378;10.010;2022-12-07T05:36:14;10.10;;;8.63;;
76346;SDS011;65171;48.378;10.010;2022-12-07T05:38:39;9.57;;;8.53;;
76346;SDS011;65171;48.378;10.010;2022-12-07T05:41:06;8.73;;;7.83;;
76346;SDS011;65171;48.378;10.010;2022-12-07T05:43:33;9.70;;;6.83;;
76346;SDS011;65171;48.378;10.010;2022-12-07T05:45:58;8.27;;;7.40;;
76346;SDS011;65171;48.378;10.010;2022-12-07T05:48:24;8.70;;;7.50;;
76346;SDS011;65171;48.378;10.010;2022-12-07T05:50:50;8.40;;;7.30;;
76346;SDS011;65171;48.378;10.010;2022-12-07T05:53:16;8.10;;;6.47;;
76346;SDS011;65171;48.378;10.010;2022-12-07T05:55:41;7.70;;;6.90;;
76346;SDS011;65171;48.378;10.010;2022-12-07T05:58:07;7.77;;;6.90;;
76346;SDS011;65171;48.378;10.010;2022-12-07T06:00:32;9.40;;;7.60;;
76346;SDS011;65171;48.378;10.010;2022-12-07T06:02:57;7.70;;;6.90;;
76346;SDS011;65171;48.378;10.010;2022-12-07T06:05:22;8.73;;;7.60;;
76346;SDS011;65171;48.378;10.010;2022-12-07T06:07:48;9.23;;;7.90;;
76346;SDS011;65171;48.378;10.010;2022-12-07T06:10:13;10.10;;;8.00;;
76346;SDS011;65171;48.378;10.010;2022-12-07T06:12:38;11.10;;;7.80;;
76346;SDS011;65171;48.378;10.010;2022-12-07T06:15:03;10.63;;;7.97;;
76346;SDS011;65171;48.378;10.010;2022-12-07T06:17:29;9.37;;;8.00;;
76346;SDS011;65171;48.378;10.010;2022-12-07T06:19:54;10.67;;;8.07;;
76346;SDS011;65171;48.378;10.010;2022-12-07T06:22:19;13.17;;;8.53;;
76346;SDS011;65171;48.378;10.010;2022-12-07T06:24:44;9.83;;;7.77;;
76346;SDS011;65171;48.378;10.010;2022-12-07T06:27:10;9.03;;;7.87;;
76346;SDS011;65171;48.378;10.010;2022-12-07T06:29:35;9.63;;;7.30;;
76346;SDS011;65171;48.378;10.010;2022-12-07T06:32:00;9.10;;;7.73;;
76346;SDS011;65171;48.378;10.010;2022-12-07T06:34:26;9.23;;;7.57;;
76346;SDS011;65171;48.378;10.010;2022-12-07T06:36:52;9.00;;;7.80;;
76346;SDS011;65171;48.378;10.010;2022-12-07T06:39:18;10.10;;;7.80;;
76346;SDS011;65171;48.378;10.010;2022-12-07T06:41:45;9.40;;;8.00;;
76346;SDS011;65171;48.378;10.010;2022-12-07T06:44:11;8.93;;;7.80;;
76346;SDS011;65171;48.378;10.010;2022-12-07T06:46:36;9.63;;;8.40;;
76346;SDS011;65171;48.378;10.010;2022-12-07T06:49:02;9.37;;;7.87;;
76346;SDS011;65171;48.378;10.010;2022-12-07T06:51:28;8.73;;;7.63;;
76346;SDS011;65171;48.378;10.010;2022-12-07T06:53:53;8.90;;;7.40;;
76346;SDS011;65171;48.378;10.010;2022-12-07T06:56:19;10.37;;;7.20;;
76346;SDS011;65171;48.378;10.010;2022-12-07T06:58:44;10.43;;;7.70;;
76346;SDS011;65171;48.378;10.010;2022-12-07T07:01:10;9.63;;;7.83;;
76346;SDS011;65171;48.378;10.010;2022-12-07T07:03:36;11.10;;;8.67;;
76346;SDS011;65171;48.378;10.010;2022-12-07T07:06:02;10.80;;;7.93;;
76346;SDS011;65171;48.378;10.010;2022-12-07T07:08:27;11.07;;;8.20;;
76346;SDS011;65171;48.378;10.010;2022-12-07T07:10:52;13.07;;;8.27;;
76346;SDS011;65171;48.378;10.010;2022-12-07T07:13:17;10.87;;;8.00;;
76346;SDS011;65171;48.378;10.010;2022-12-07T07:15:42;11.77;;;8.57;;
76346;SDS011;65171;48.378;10.010;2022-12-07T07:18:08;11.63;;;9.00;;
76346;SDS011;65171;48.378;10.010;2022-12-07T07:20:33;11.60;;;9.17;;
76346;SDS011;65171;48.378;10.010;2022-12-07T07:22:58;12.83;;;9.73;;
76346;SDS011;65171;48.378;10.010;2022-12-07T07:25:24;11.77;;;9.30;;
76346;SDS011;65171;48.378;10.010;2022-12-07T07:27:49;10.30;;;9.20;;
76346;SDS011;65171;48.378;10.010;2022-12-07T07:30:14;10.80;;;9.27;;
76346;SDS011;65171;48.378;10.010;2022-12-07T07:32:39;9.87;;;8.73;;
76346;SDS011;65171;48.378;10.010;2022-12-07T07:35:05;11.40;;;8.63;;
76346;SDS011;65171;48.378;10.010;2022-12-07T07:37:30;15.97;;;9.37;;
76346;SDS011;65171;48.378;10.010;2022-12-07T07:39:56;22.80;;;11.50;;
76346;SDS011;65171;48.378;10.010;2022-12-07T07:42:21;21.63;;;10.10;;
76346;SDS011;65171;48.378;10.010;2022-12-07T07:44:46;11.13;;;9.40;;
76346;SDS011;65171;48.378;10.010;2022-12-07T07:47:11;12.77;;;10.13;;
76346;SDS011;65171;48.378;10.010;2022-12-07T07:49:36;11.77;;;10.03;;
76346;SDS011;65171;48.378;10.010;2022-12-07T07:52:02;11.53;;;9.93;;
76346;SDS011;65171;48.378;10.010;2022-12-07T07:54:27;11.83;;;9.53;;
76346;SDS011;65171;48.378;10.010;2022-12-07T07:56:53;10.90;;;9.70;;
76346;SDS011;65171;48.378;10.010;2022-12-07T07:59:18;11.10;;;9.63;;
76346;SDS011;65171;48.378;10.010;2022-12-07T08:01:43;10.90;;;9.30;;
76346;SDS011;65171;48.378;10.010;2022-12-07T08:04:08;11.53;;;9.67;;
76346;SDS011;65171;48.378;10.010;2022-12-07T08:06:33;12.73;;;9.07;;
76346;SDS011;65171;48.378;10.010;2022-12-07T08:08:59;12.37;;;9.97;;
76346;SDS011;65171;48.378;10.010;2022-12-07T08:11:24;12.57;;;10.07;;
76346;SDS011;65171;48.378;10.010;2022-12-07T08:13:49;13.47;;;9.90;;
76346;SDS011;65171;48.378;10.010;2022-12-07T08:16:14;13.80;;;9.70;;
76346;SDS011;65171;48.378;10.010;2022-12-07T08:18:40;12.60;;;9.87;;
76346;SDS011;65171;48.378;10.010;2022-12-07T08:21:06;12.87;;;10.27;;
76346;SDS011;65171;48.378;10.010;2022-12-07T08:23:32;12.40;;;9.67;;
76346;SDS011;65171;48.378;10.010;2022-12-07T08:26:02;10.50;;;9.37;;
76346;SDS011;65171;48.378;10.010;2022-12-07T08:28:28;11.13;;;9.40;;
76346;SDS011;65171;48.378;10.010;2022-12-07T08:31:00;11.10;;;9.23;;
76346;SDS011;65171;48.378;10.010;2022-12-07T08:33:30;10.60;;;9.17;;
76346;SDS011;65171;48.378;10.010;2022-12-07T08:35:59;11.70;;;8.83;;
76346;SDS011;65171;48.378;10.010;2022-12-07T08:38:35;10.67;;;9.10;;
76346;SDS011;65171;48.378;10.010;2022-12-07T08:41:01;14.70;;;8.93;;
76346;SDS011;65171;48.378;10.010;2022-12-07T08:43:26;11.27;;;8.93;;
76346;SDS011;65171;48.378;10.010;2022-12-07T08:46:03;10.50;;;8.23;;
76346;SDS011;65171;48.378;10.010;2022-12-07T08:48:30;9.87;;;8.03;;
76346;SDS011;65171;48.378;10.010;2022-12-07T08:50:57;9.23;;;7.57;;
76346;SDS011;65171;48.378;10.010;2022-12-07T08:53:22;9.70;;;7.93;;
76346;SDS011;65171;48.378;10.010;2022-12-07T08:55:48;11.23;;;8.77;;
76346;SDS011;65171;48.378;10.010;2022-12-07T08:58:13;13.60;;;9.03;;
76346;SDS011;65171;48.378;10.010;2022-12-07T09:00:39;15.43;;;8.83;;
76346;SDS011;65171;48.378;10.010;2022-12-07T09:03:04;13.80;;;8.53;;
76346;SDS011;65171;48.378;10.010;2022-12-07T09:05:29;12.40;;;8.63;;
76346;SDS011;65171;48.378;10.010;2022-12-07T09:07:55;14.57;;;9.17;;
76346;SDS011;65171;48.378;10.010;2022-12-07T09:10:25;12.53;;;8.73;;
76346;SDS011;65171;48.378;10.010;2022-12-07T09:12:50;17.17;;;9.33;;
76346;SDS011;65171;48.378;10.010;2022-12-07T09:15:15;14.53;;;9.13;;
76346;SDS011;65171;48.378;10.010;2022-12-07T09:17:40;16.03;;;8.83;;
76346;SDS011;65171;48.378;10.010;2022-12-07T09:20:06;13.13;;;8.73;;
76346;SDS011;65171;48.378;10.010;2022-12-07T09:22:31;11.63;;;7.87;;
76346;SDS011;65171;48.378;10.010;2022-12-07T09:24:57;11.67;;;7.57;;
76346;SDS011;65171;48.378;10.010;2022-12-07T09:27:23;9.87;;;6.70;;
76346;SDS011;65171;48.378;10.010;2022-12-07T09:29:49;9.27;;;6.67;;
76346;SDS011;65171;48.378;10.010;2022-12-07T09:32:14;11.50;;;7.30;;
76346;SDS011;65171;48.378;10.010;2022-12-07T09:34:39;13.43;;;7.97;;
76346;SDS011;65171;48.378;10.010;2022-12-07T09:37:04;11.80;;;7.20;;
76346;SDS011;65171;48.378;10.010;2022-12-07T09:39:29;10.83;;;7.50;;
76346;SDS011;65171;48.378;10.010;2022-12-07T09:41:56;11.93;;;8.23;;
76346;SDS011;65171;48.378;10.010;2022-12-07T09:44:23;15.73;;;9.30;;
76346;SDS011;65171;48.378;10.010;2022-12-07T09:46:50;15.67;;;9.37;;
76346;SDS011;65171;48.378;10.010;2022-12-07T09:49:20;22.00;;;9.60;;
76346;SDS011;65171;48.378;10.010;2022-12-07T09:51:46;15.10;;;8.60;;
76346;SDS011;65171;48.378;10.010;2022-12-07T09:54:12;14.10;;;8.93;;
76346;SDS011;65171;48.378;10.010;2022-12-07T09:56:39;13.67;;;8.53;;
76346;SDS011;65171;48.378;10.010;2022-12-07T09:59:05;13.63;;;8.17;;
76346;SDS011;65171;48.378;10.010;2022-12-07T10:01:31;11.50;;;8.03;;
76346;SDS011;65171;48.378;10.010;2022-12-07T10:04:11;13.30;;;8.37;;
76346;SDS011;65171;48.378;10.010;2022-12-07T10:06:47;11.67;;;7.67;;
76346;SDS011;65171;48.378;10.010;2022-12-07T10:09:12;11.70;;;7.73;;
76346;SDS011;65171;48.378;10.010;2022-12-07T10:12:02;8.30;;;6.33;;
76346;SDS011;65171;48.378;10.010;2022-12-07T10:14:27;10.53;;;6.33;;
76346;SDS011;65171;48.378;10.010;2022-12-07T10:16:54;8.30;;;6.27;;
76346;SDS011;65171;48.378;10.010;2022-12-07T10:22:14;9.13;;;5.97;;
76346;SDS011;65171;48.378;10.010;2022-12-07T10:24:41;7.10;;;5.80;;
76346;SDS011;65171;48.378;10.010;2022-12-07T10:27:17;6.67;;;5.83;;
76346;SDS011;65171;48.378;10.010;2022-12-07T10:29:43;7.63;;;6.10;;
76346;SDS011;65171;48.378;10.010;2022-12-07T10:34:41;7.67;;;5.10;;
76346;SDS011;65171;48.378;10.010;2022-12-07T10:37:13;7.27;;;6.07;;
76346;SDS011;65171;48.378;10.010;2022-12-07T10:39:49;6.80;;;4.70;;
76346;SDS011;65171;48.378;10.010;2022-12-07T10:42:19;7.23;;;5.20;;
76346;SDS011;65171;48.378;10.010;2022-12-07T10:44:46;5.17;;;3.50;;
76346;SDS011;65171;48.378;10.010;2022-12-07T10:50:29;3.57;;;3.10;;
76346;SDS011;65171;48.378;10.010;2022-12-07T10:53:11;6.30;;;4.50;;
76346;SDS011;65171;48.378;10.010;2022-12-07T11:04:14;5.43;;;4.17;;
76346;SDS011;65171;48.378;10.010;2022-12-07T11:14:40;6.10;;;3.57;;
76346;SDS011;65171;48.378;10.010;2022-12-07T11:22:59;4.50;;;3.50;;
76346;SDS011;65171;48.378;10.010;2022-12-07T11:31:36;5.73;;;2.80;;
76346;SDS011;65171;48.378;10.010;2022-12-07T11:34:08;3.10;;;2.80;;
76346;SDS011;65171;48.378;10.010;2022-12-07T11:36:44;3.83;;;3.07;;
76346;SDS011;65171;48.378;10.010;2022-12-07T11:41:44;3.20;;;2.87;;
76346;SDS011;65171;48.378;10.010;2022-12-07T11:44:19;3.57;;;2.70;;
76346;SDS011;65171;48.378;10.010;2022-12-07T11:49:54;3.97;;;2.93;;
76346;SDS011;65171;48.378;10.010;2022-12-07T11:52:44;2.93;;;2.63;;
76346;SDS011;65171;48.378;10.010;2022-12-07T11:55:21;3.33;;;2.80;;
76346;SDS011;65171;48.378;10.010;2022-12-07T11:57:52;3.60;;;2.70;;
76346;SDS011;65171;48.378;10.010;2022-12-07T12:00:23;2.87;;;2.60;;
76346;SDS011;65171;48.378;10.010;2022-12-07T12:02:57;5.67;;;2.90;;
76346;SDS011;65171;48.378;10.010;2022-12-07T12:05:28;2.40;;;2.20;;
76346;SDS011;65171;48.378;10.010;2022-12-07T12:08:02;3.70;;;2.87;;
76346;SDS011;65171;48.378;10.010;2022-12-07T12:10:47;4.43;;;3.00;;
76346;SDS011;65171;48.378;10.010;2022-12-07T12:13:27;3.60;;;3.00;;
76346;SDS011;65171;48.378;10.010;2022-12-07T12:21:26;3.03;;;2.60;;
76346;SDS011;65171;48.378;10.010;2022-12-07T12:24:00;3.43;;;2.90;;
76346;SDS011;65171;48.378;10.010;2022-12-07T12:26:32;3.67;;;2.83;;
76346;SDS011;65171;48.378;10.010;2022-12-07T12:33:52;3.17;;;2.87;;
76346;SDS011;65171;48.378;10.010;2022-12-07T12:36:25;2.90;;;2.47;;
76346;SDS011;65171;48.378;10.010;2022-12-07T12:44:03;4.07;;;2.67;;
76346;SDS011;65171;48.378;10.010;2022-12-07T12:51:43;2.85;;;2.50;;
76346;SDS011;65171;48.378;10.010;2022-12-07T12:54:14;3.20;;;2.90;;
76346;SDS011;65171;48.378;10.010;2022-12-07T13:01:46;3.53;;;3.10;;
76346;SDS011;65171;48.378;10.010;2022-12-07T13:04:28;4.40;;;3.27;;
76346;SDS011;65171;48.378;10.010;2022-12-07T13:06:59;4.53;;;3.00;;
76346;SDS011;65171;48.378;10.010;2022-12-07T13:09:28;3.70;;;3.10;;
76346;SDS011;65171;48.378;10.010;2022-12-07T13:11:56;3.00;;;2.70;;
76346;SDS011;65171;48.378;10.010;2022-12-07T13:17:03;4.10;;;3.07;;
76346;SDS011;65171;48.378;10.010;2022-12-07T13:27:55;3.80;;;3.33;;
76346;SDS011;65171;48.378;10.010;2022-12-07T13:30:25;4.00;;;3.50;;
76346;SDS011;65171;48.378;10.010;2022-12-07T13:32:53;4.60;;;2.80;;
76346;SDS011;65171;48.378;10.010;2022-12-07T13:37:58;6.30;;;3.00;;
76346;SDS011;65171;48.378;10.010;2022-12-07T13:40:24;3.73;;;3.40;;
76346;SDS011;65171;48.378;10.010;2022-12-07T13:43:00;3.63;;;3.10;;
76346;SDS011;65171;48.378;10.010;2022-12-07T13:45:30;3.60;;;2.80;;
76346;SDS011;65171;48.378;10.010;2022-12-07T13:47:57;6.83;;;3.00;;
76346;SDS011;65171;48.378;10.010;2022-12-07T13:50:25;3.27;;;2.87;;
76346;SDS011;65171;48.378;10.010;2022-12-07T13:52:55;2.50;;;2.30;;
76346;SDS011;65171;48.378;10.010;2022-12-07T13:55:22;2.43;;;2.23;;
76346;SDS011;65171;48.378;10.010;2022-12-07T13:57:48;5.73;;;2.67;;
76346;SDS011;65171;48.378;10.010;2022-12-07T14:00:19;2.60;;;2.40;;
76346;SDS011;65171;48.378;10.010;2022-12-07T14:03:20;2.33;;;2.13;;
76346;SDS011;65171;48.378;10.010;2022-12-07T14:08:49;2.80;;;2.30;;
76346;SDS011;65171;48.378;10.010;2022-12-07T14:11:18;2.67;;;2.47;;
76346;SDS011;65171;48.378;10.010;2022-12-07T14:16:29;2.67;;;2.30;;
76346;SDS011;65171;48.378;10.010;2022-12-07T14:19:00;3.23;;;2.13;;
76346;SDS011;65171;48.378;10.010;2022-12-07T14:21:29;2.83;;;2.17;;
76346;SDS011;65171;48.378;10.010;2022-12-07T14:24:02;2.40;;;2.20;;
76346;SDS011;65171;48.378;10.010;2022-12-07T14:26:34;5.33;;;2.37;;
76346;SDS011;65171;48.378;10.010;2022-12-07T14:31:44;2.30;;;2.10;;
76346;SDS011;65171;48.378;10.010;2022-12-07T14:34:11;4.07;;;2.17;;
76346;SDS011;65171;48.378;10.010;2022-12-07T14:36:37;2.70;;;2.10;;
76346;SDS011;65171;48.378;10.010;2022-12-07T14:39:02;2.70;;;2.50;;
76346;SDS011;65171;48.378;10.010;2022-12-07T14:41:27;4.10;;;2.20;;
76346;SDS011;65171;48.378;10.010;2022-12-07T14:43:52;2.77;;;2.23;;
76346;SDS011;65171;48.378;10.010;2022-12-07T14:46:17;2.57;;;2.20;;
76346;SDS011;65171;48.378;10.010;2022-12-07T14:48:42;2.90;;;2.37;;
76346;SDS011;65171;48.378;10.010;2022-12-07T14:51:08;2.90;;;2.40;;
76346;SDS011;65171;48.378;10.010;2022-12-07T14:53:38;2.77;;;2.10;;
76346;SDS011;65171;48.378;10.010;2022-12-07T14:56:06;3.33;;;2.67;;
76346;SDS011;65171;48.378;10.010;2022-12-07T14:58:32;5.03;;;2.97;;
76346;SDS011;65171;48.378;10.010;2022-12-07T15:00:57;2.83;;;2.47;;
76346;SDS011;65171;48.378;10.010;2022-12-07T15:03:22;2.80;;;2.40;;
76346;SDS011;65171;48.378;10.010;2022-12-07T15:05:47;3.10;;;2.47;;
76346;SDS011;65171;48.378;10.010;2022-12-07T15:08:13;2.67;;;2.47;;
76346;SDS011;65171;48.378;10.010;2022-12-07T15:10:38;2.80;;;2.30;;
76346;SDS011;65171;48.378;10.010;2022-12-07T15:13:04;3.77;;;2.40;;
76346;SDS011;65171;48.378;10.010;2022-12-07T15:15:29;3.30;;;2.90;;
76346;SDS011;65171;48.378;10.010;2022-12-07T15:17:55;4.43;;;3.20;;
76346;SDS011;65171;48.378;10.010;2022-12-07T15:20:20;4.37;;;2.70;;
76346;SDS011;65171;48.378;10.010;2022-12-07T15:22:45;5.03;;;2.80;;
76346;SDS011;65171;48.378;10.010;2022-12-07T15:25:13;4.40;;;3.27;;
76346;SDS011;65171;48.378;10.010;2022-12-07T15:27:39;4.30;;;2.90;;
76346;SDS011;65171;48.378;10.010;2022-12-07T15:30:04;4.60;;;2.90;;
76346;SDS011;65171;48.378;10.010;2022-12-07T15:32:30;4.67;;;3.00;;
76346;SDS011;65171;48.378;10.010;2022-12-07T15:34:55;3.33;;;2.93;;
76346;SDS011;65171;48.378;10.010;2022-12-07T15:37:20;5.50;;;3.00;;
76346;SDS011;65171;48.378;10.010;2022-12-07T15:39:45;5.17;;;3.60;;
76346;SDS011;65171;48.378;10.010;2022-12-07T15:42:11;4.90;;;3.47;;
76346;SDS011;65171;48.378;10.010;2022-12-07T15:44:36;5.57;;;3.63;;
76346;SDS011;65171;48.378;10.010;2022-12-07T15:47:01;5.33;;;3.27;;
76346;SDS011;65171;48.378;10.010;2022-12-07T15:49:26;6.20;;;3.20;;
76346;SDS011;65171;48.378;10.010;2022-12-07T15:51:52;8.50;;;3.90;;
76346;SDS011;65171;48.378;10.010;2022-12-07T15:54:19;4.73;;;3.53;;
76346;SDS011;65171;48.378;10.010;2022-12-07T15:56:44;5.63;;;3.97;;
76346;SDS011;65171;48.378;10.010;2022-12-07T15:59:10;4.00;;;3.37;;
76346;SDS011;65171;48.378;10.010;2022-12-07T16:01:35;6.17;;;4.30;;
76346;SDS011;65171;48.378;10.010;2022-12-07T16:04:00;4.97;;;3.20;;
76346;SDS011;65171;48.378;10.010;2022-12-07T16:06:25;3.87;;;3.20;;
76346;SDS011;65171;48.378;10.010;2022-12-07T16:08:51;6.63;;;3.10;;
76346;SDS011;65171;48.378;10.010;2022-12-07T16:11:16;6.57;;;3.23;;
76346;SDS011;65171;48.378;10.010;2022-12-07T16:13:41;5.77;;;3.50;;
76346;SDS011;65171;48.378;10.010;2022-12-07T16:16:07;4.87;;;3.27;;
76346;SDS011;65171;48.378;10.010;2022-12-07T16:18:36;5.27;;;3.33;;
76346;SDS011;65171;48.378;10.010;2022-12-07T16:21:01;5.07;;;3.53;;
76346;SDS011;65171;48.378;10.010;2022-12-07T16:23:27;4.13;;;3.30;;
76346;SDS011;65171;48.378;10.010;2022-12-07T16:25:52;5.33;;;3.77;;
76346;SDS011;65171;48.378;10.010;2022-12-07T16:28:18;5.63;;;3.80;;
76346;SDS011;65171;48.378;10.010;2022-12-07T16:30:43;6.10;;;3.90;;
76346;SDS011;65171;48.378;10.010;2022-12-07T16:33:08;7.87;;;4.47;;
76346;SDS011;65171;48.378;10.010;2022-12-07T16:35:33;5.57;;;4.13;;
76346;SDS011;65171;48.378;10.010;2022-12-07T16:37:59;7.80;;;4.47;;